Météo Nord-Pas-de-Calais   La météo au plus près de chez vous

Station météorologique

Observations météo à Villefranche-De-Rouergue (12300)

12300004 330 m Dernier relevé à 15:06
36.9°C
Humidité 23 % Vent 5 km/h

Journée consultée

Dimanche 6 Septembre 2026

Synthèse de la journée

Périodes de référence en UTC

Température maximale

36.9°C

à 15:06

06h 06h

Température minimale

14.8°C

à 05:30

18h 18h

Rafale maximale

15 km/h

à 14:36

00h 00h

Précipitations

0 mm

Cumul quotidien

06h 06h

Graphiques de la journée

Heure locale Réduire

Données détaillées

Relevés météo

Pas de 6 minutes Afficher les relevés infra-horaires
Relevés météo détaillés à Villefranche-De-Rouergue pour le Dimanche 6 Septembre 2026
Heure Température °C Point de rosée °C Humidité % Vent moyen (raf.), km/h Précipitations mm
15:06 36.9 °C 8.7 °C 18 % 3 km/h (12 km/h) 0 mm0 mm
15:00 36.7 °C 8.5 °C 18 % 6 km/h (14 km/h) 0 mm0 mm
14:54 36.8 °C 8.6 °C 18 % 7 km/h (14 km/h) 0 mm0 mm
14:48 36.3 °C 8.2 °C 18 % 5 km/h (10 km/h) 0 mm0 mm
14:42 36.4 °C 8.3 °C 18 % 5 km/h (14 km/h) 0 mm0 mm
14:36 36.1 °C 8 °C 18 % 6 km/h (15 km/h) 0 mm0 mm
14:30 36.1 °C 8.8 °C 19 % 4 km/h (10 km/h) 0 mm0 mm
14:24 36.1 °C 8.8 °C 19 % 5 km/h (13 km/h) 0 mm0 mm
14:18 35.9 °C 9.4 °C 20 % 6 km/h (13 km/h) 0 mm0 mm
14:12 35.4 °C 9.7 °C 21 % 6 km/h (13 km/h) 0 mm0 mm
14:06 34.9 °C 10.7 °C 23 % 5 km/h (12 km/h) 0 mm0 mm
14:00 34.6 °C 11.7 °C 25 % 5 km/h (9 km/h) 0 mm0 mm
13:54 34.7 °C 11.8 °C 25 % 4 km/h (9 km/h) 0 mm0 mm
13:48 34.4 °C 12.1 °C 26 % 5 km/h (10 km/h) 0 mm0 mm
13:42 34 °C 12.4 °C 27 % 4 km/h (10 km/h) 0 mm0 mm
13:36 33.6 °C 14.1 °C 31 % 4 km/h (8 km/h) 0 mm0 mm
13:30 33.5 °C 15 °C 33 % 5 km/h (10 km/h) 0 mm0 mm
13:24 33.3 °C 14.4 °C 32 % 5 km/h (10 km/h) 0 mm0 mm
13:18 32.8 °C 16.6 °C 38 % 4 km/h (11 km/h) 0 mm0 mm
13:12 32.6 °C 16.8 °C 39 % 4 km/h (8 km/h) 0 mm0 mm
13:06 31.9 °C 16.6 °C 40 % 4 km/h (8 km/h) 0 mm0 mm
13:00 31.1 °C 17.4 °C 44 % 3 km/h (6 km/h) 0 mm0 mm
12:54 31 °C 16.2 °C 41 % 4 km/h (6 km/h) 0 mm0 mm
12:48 31.1 °C 16.3 °C 41 % 4 km/h (7 km/h) 0 mm0 mm
12:42 31 °C 16.2 °C 41 % 4 km/h (7 km/h) 0 mm0 mm
12:36 30.9 °C 15.7 °C 40 % 4 km/h (8 km/h) 0 mm0 mm
12:30 30.7 °C 15.5 °C 40 % 4 km/h (8 km/h) 0 mm0 mm
12:24 30.3 °C 16 °C 42 % 4 km/h (6 km/h) 0 mm0 mm
12:18 29.8 °C 15.1 °C 41 % 5 km/h (8 km/h) 0 mm0 mm
12:12 29.6 °C 15 °C 41 % 7 km/h (11 km/h) 0 mm0 mm
12:06 29.7 °C 15 °C 41 % 6 km/h (11 km/h) 0 mm0 mm
12:00 30.3 °C 14 °C 37 % 3 km/h (8 km/h) 0 mm0 mm
11:54 30.4 °C 14.1 °C 37 % 0 km/h (4 km/h) 0 mm0 mm
11:48 30.1 °C 14.2 °C 38 % 3 km/h (7 km/h) 0 mm0 mm
11:42 29.5 °C 15.6 °C 43 % 3 km/h (7 km/h) 0 mm0 mm
11:36 29.2 °C 14.2 °C 40 % 3 km/h (8 km/h) 0 mm0 mm
11:30 28.8 °C 15.7 °C 45 % 5 km/h (10 km/h) 0 mm0 mm
11:24 28.5 °C 16.4 °C 48 % 5 km/h (10 km/h) 0 mm0 mm
11:18 27.8 °C 16.4 °C 50 % 4 km/h (8 km/h) 0 mm0 mm
11:12 27.3 °C 16 °C 50 % 2 km/h (5 km/h) 0 mm0 mm
11:06 26.9 °C 15.9 °C 51 % 2 km/h (6 km/h) 0 mm0 mm
11:00 26.2 °C 16.4 °C 55 % 0 km/h (5 km/h) 0 mm0 mm
10:54 25.1 °C 16.3 °C 58 % 2 km/h (6 km/h) 0 mm0 mm
10:48 24.6 °C 16.8 °C 62 % 3 km/h (6 km/h) 0 mm0 mm
10:42 24.2 °C 15.4 °C 58 % 5 km/h (9 km/h) 0 mm0 mm
10:36 23.9 °C 16.2 °C 62 % 5 km/h (9 km/h) 0 mm0 mm
10:30 23.7 °C 16.5 °C 64 % 3 km/h (8 km/h) 0 mm0 mm
10:24 22.9 °C 16 °C 65 % 3 km/h (5 km/h) 0 mm0 mm
10:18 22.5 °C 15.8 °C 66 % 3 km/h (6 km/h) 0 mm0 mm
10:12 22 °C 15.1 °C 65 % 5 km/h (9 km/h) 0 mm0 mm
10:06 21.8 °C 15.9 °C 69 % 5 km/h (8 km/h) 0 mm0 mm
10:00 21.6 °C 15.2 °C 67 % 4 km/h (9 km/h) 0 mm0 mm
09:54 21.6 °C 15.7 °C 69 % 3 km/h (9 km/h) 0 mm0 mm
09:48 21.3 °C 15.4 °C 69 % 0 km/h (4 km/h) 0 mm0 mm
09:42 21 °C 15.3 °C 70 % 0 km/h (4 km/h) 0 mm0 mm
09:36 20.7 °C 15.3 °C 71 % 0 km/h (3 km/h) 0 mm0 mm
09:30 20.3 °C 15.3 °C 73 % 0 km/h (3 km/h) 0 mm0 mm
09:24 20 °C 15 °C 73 % 0 km/h (4 km/h) 0 mm0 mm
09:18 19.6 °C 14.8 °C 74 % 2 km/h (5 km/h) 0 mm0 mm
09:12 19.2 °C 15.1 °C 77 % 3 km/h (5 km/h) 0 mm0 mm
09:06 18.8 °C 14.7 °C 77 % 3 km/h (5 km/h) 0 mm0 mm
09:00 18.7 °C 15 °C 79 % 3 km/h (5 km/h) 0 mm0 mm
08:54 18.5 °C 15 °C 80 % 2 km/h (8 km/h) 0 mm0 mm
08:48 18.5 °C 14.8 °C 79 % 4 km/h (8 km/h) 0 mm0 mm
08:42 18.5 °C 14.8 °C 79 % 3 km/h (7 km/h) 0 mm0 mm
08:36 18.5 °C 15.2 °C 81 % 2 km/h (7 km/h) 0 mm0 mm
08:30 18.4 °C 15.1 °C 81 % 0 km/h (5 km/h) 0 mm0 mm
08:24 18.1 °C 15.2 °C 83 % 0 km/h (3 km/h) 0 mm0 mm
08:18 18 °C 15.1 °C 83 % 3 km/h (6 km/h) 0 mm0 mm
08:12 17.9 °C 15 °C 83 % 4 km/h (6 km/h) 0 mm0 mm
08:06 17.8 °C 14.7 °C 82 % 2 km/h (4 km/h) 0 mm0 mm
08:00 17.8 °C 14.5 °C 81 % 2 km/h (6 km/h) 0 mm0 mm
07:54 18.3 °C 14.4 °C 78 % 3 km/h (9 km/h) 0 mm0 mm
07:48 17.6 °C 13.9 °C 79 % 4 km/h (13 km/h) 0 mm0 mm
07:42 17.1 °C 13.6 °C 80 % 4 km/h (13 km/h) 0 mm0 mm
07:36 16.8 °C 13.7 °C 82 % 4 km/h (10 km/h) 0 mm0 mm
07:30 16.7 °C 13.6 °C 82 % 5 km/h (10 km/h) 0 mm0 mm
07:24 16.8 °C 13.5 °C 81 % 6 km/h (14 km/h) 0 mm0 mm
07:18 17.4 °C 13.9 °C 80 % 5 km/h (14 km/h) 0 mm0 mm
07:12 15.7 °C 13.7 °C 88 % 3 km/h (6 km/h) 0 mm0 mm
07:06 16 °C 13.8 °C 87 % 3 km/h (5 km/h) 0 mm0 mm
07:00 15.9 °C 13.9 °C 88 % 3 km/h (5 km/h) 0 mm0 mm
06:54 15.7 °C 13.5 °C 87 % 0 km/h (3 km/h) 0 mm0 mm
06:48 15.6 °C 13.8 °C 89 % 0 km/h (0 km/h) 0 mm0 mm
06:42 15.5 °C 13.9 °C 90 % 0 km/h (3 km/h) 0 mm0 mm
06:36 15.5 °C 13.9 °C 90 % 0 km/h (3 km/h) 0 mm0 mm
06:30 15.4 °C 13.9 °C 91 % 0 km/h (4 km/h) 0 mm0 mm
06:24 15.5 °C 14 °C 91 % 0 km/h (4 km/h) 0 mm0 mm
06:18 15.6 °C 14 °C 90 % 0 km/h (2 km/h) 0 mm0 mm
06:12 15.5 °C 14 °C 91 % 0 km/h (3 km/h) 0 mm0 mm
06:06 15.4 °C 13.9 °C 91 % 0 km/h (3 km/h) 0 mm0 mm
06:00 15.3 °C 13.8 °C 91 % 0 km/h (4 km/h) 0 mm0 mm
05:54 15.2 °C 13.4 °C 89 % 3 km/h (5 km/h) 0 mm0 mm
05:48 15.4 °C 13.9 °C 91 % 0 km/h (5 km/h) 0 mm0 mm
05:42 14.9 °C 13.6 °C 92 % 0 km/h (3 km/h) 0 mm0 mm
05:36 14.8 °C 13.5 °C 92 % 0 km/h (3 km/h) 0 mm0 mm
05:30 14.8 °C 13.2 °C 90 % 2 km/h (4 km/h) 0 mm0 mm
05:24 15 °C 13.4 °C 90 % 3 km/h (6 km/h) 0 mm0 mm
05:18 15.2 °C 13.4 °C 89 % 3 km/h (6 km/h) 0 mm0 mm
05:12 15.2 °C 13.6 °C 90 % 0 km/h (3 km/h) 0 mm0 mm
05:06 15.2 °C 13.6 °C 90 % 0 km/h (0 km/h) 0 mm0 mm
05:00 15.1 °C 13.5 °C 90 % 0 km/h (2 km/h) 0 mm0 mm
04:54 15.2 °C 13.4 °C 89 % 0 km/h (2 km/h) 0 mm0 mm
04:48 15.3 °C 13.5 °C 89 % 0 km/h (3 km/h) 0 mm0 mm
04:42 15.3 °C 13.7 °C 90 % 0 km/h (3 km/h) 0 mm0 mm
04:36 15.3 °C 13.7 °C 90 % 0 km/h (3 km/h) 0 mm0 mm
04:30 15.2 °C 13.4 °C 89 % 0 km/h (3 km/h) 0 mm0 mm
04:24 15.2 °C 13.4 °C 89 % 0 km/h (3 km/h) 0 mm0 mm
04:18 15.4 °C 13.2 °C 87 % 0 km/h (3 km/h) 0 mm0 mm
04:12 15.6 °C 13.6 °C 88 % 0 km/h (3 km/h) 0 mm0 mm
04:06 15.5 °C 13.3 °C 87 % 0 km/h (3 km/h) 0 mm0 mm
04:00 15.6 °C 13.6 °C 88 % 0 km/h (3 km/h) 0 mm0 mm
03:54 15.7 °C 13.5 °C 87 % 0 km/h (5 km/h) 0 mm0 mm
03:48 15.8 °C 13.6 °C 87 % 0 km/h (2 km/h) 0 mm0 mm
03:42 15.8 °C 13.5 °C 86 % 0 km/h (0 km/h) 0 mm0 mm
03:36 16.1 °C 13.6 °C 85 % 0 km/h (3 km/h) 0 mm0 mm
03:30 16.3 °C 13.6 °C 84 % 0 km/h (3 km/h) 0 mm0 mm
03:24 16.4 °C 13.7 °C 84 % 0 km/h (3 km/h) 0 mm0 mm
03:18 16.4 °C 13.7 °C 84 % 0 km/h (3 km/h) 0 mm0 mm
03:12 16.3 °C 13.6 °C 84 % 0 km/h (2 km/h) 0 mm0 mm
03:06 16.2 °C 13.7 °C 85 % 0 km/h (2 km/h) 0 mm0 mm
03:00 16.4 °C 13.9 °C 85 % 0 km/h (0 km/h) 0 mm0 mm
02:54 16.5 °C 13.8 °C 84 % 0 km/h (3 km/h) 0 mm0 mm
02:48 16.8 °C 13.7 °C 82 % 0 km/h (3 km/h) 0 mm0 mm
02:42 16.9 °C 13.6 °C 81 % 0 km/h (4 km/h) 0 mm0 mm
02:36 17 °C 13.9 °C 82 % 2 km/h (4 km/h) 0 mm0 mm
02:30 16.9 °C 13.6 °C 81 % 0 km/h (3 km/h) 0 mm0 mm
02:24 17 °C 13.7 °C 81 % 0 km/h (3 km/h) 0 mm0 mm
02:18 17.2 °C 13.3 °C 78 % 0 km/h (4 km/h) 0 mm0 mm
02:12 17.2 °C 13.7 °C 80 % 2 km/h (4 km/h) 0 mm0 mm
02:06 17.1 °C 13.2 °C 78 % 2 km/h (4 km/h) 0 mm0 mm
02:00 17.1 °C 13.2 °C 78 % 2 km/h (3 km/h) 0 mm0 mm
01:54 17.2 °C 13.5 °C 79 % 0 km/h (2 km/h) 0 mm0 mm
01:48 17.4 °C 13.7 °C 79 % 0 km/h (0 km/h) 0 mm0 mm
01:42 17.6 °C 13.9 °C 79 % 0 km/h (3 km/h) 0 mm0 mm
01:36 17.5 °C 13.8 °C 79 % 0 km/h (3 km/h) 0 mm0 mm
01:30 17.8 °C 13.7 °C 77 % 0 km/h (3 km/h) 0 mm0 mm
01:24 18.1 °C 13.8 °C 76 % 0 km/h (3 km/h) 0 mm0 mm
01:18 17.9 °C 13.8 °C 77 % 3 km/h (5 km/h) 0 mm0 mm
01:12 17.9 °C 13.8 °C 77 % 3 km/h (5 km/h) 0 mm0 mm
01:06 17.8 °C 13.9 °C 78 % 3 km/h (6 km/h) 0 mm0 mm
01:00 17.9 °C 13.8 °C 77 % 2 km/h (6 km/h) 0 mm0 mm
00:54 18.2 °C 13.9 °C 76 % 3 km/h (5 km/h) 0 mm0 mm
00:48 18.5 °C 14 °C 75 % 4 km/h (5 km/h) 0 mm0 mm
00:42 18.7 °C 13.8 °C 73 % 2 km/h (5 km/h) 0 mm0 mm
00:36 18.8 °C 13.6 °C 72 % 0 km/h (3 km/h) 0 mm0 mm
00:30 18.8 °C 13.6 °C 72 % 3 km/h (5 km/h) 0 mm0 mm
00:24 19.3 °C 13.9 °C 71 % 3 km/h (5 km/h) 0 mm0 mm
00:18 19.2 °C 13.8 °C 71 % 2 km/h (5 km/h) 0 mm0 mm
00:12 19.1 °C 13.7 °C 71 % 2 km/h (3 km/h) 0 mm0 mm
00:06 18.9 °C 14 °C 73 % 3 km/h (4 km/h) 0 mm0 mm
00:00 19 °C 13.8 °C 72 % 0 km/h (4 km/h) 0 mm0 mm

Données via Météo-France

Relevés météo à Villefranche-De-Rouergue

Cette page rassemble les observations de la station de Villefranche-De-Rouergue : température, humidité, vent, précipitations et pression atmosphérique. Les graphiques facilitent le suivi de la journée, tandis que le tableau donne accès aux mesures horaires et infra-horaires disponibles.

Pour replacer ces mesures dans leur contexte, consultez la climatologie de Villefranche-De-Rouergue ainsi que ses normales et records. Retrouvez aussi la carte des observations météo en temps réel.